Time;durP1;ratioP1;P1;durP2;ratioP2;P2;SDS_P1;SDS_P2;PMS_P1;PMS_P2;Temp;Humidity;BMP_temperature;BMP_pressure;BME280_temperature;BME280_humidity;BME280_pressure;Samples;Min_cycle;Max_cycle;Signal;HPM_P1;HPM_P2
2021/01/10 00:00:24;;;;;;;14.80;9.50;;;;;;;0.08;93.97;101040.96;639125;224;23684;-75
2021/01/10 00:02:52;;;;;;;14.50;10.40;;;;;;;0.05;94.52;101043.64;632806;224;33098;-74
2021/01/10 00:05:20;;;;;;;14.47;10.30;;;;;;;-0.03;95.16;101045.19;640710;220;23705;-76
2021/01/10 00:07:48;;;;;;;15.70;11.22;;;;;;;-0.01;95.12;101049.35;635150;224;32740;-76
2021/01/10 00:10:16;;;;;;;12.63;9.77;;;;;;;-0.02;95.43;101046.86;641014;224;23680;-77
2021/01/10 00:12:44;;;;;;;14.28;10.38;;;;;;;0.03;94.22;101042.88;634177;224;32784;-74
2021/01/10 00:15:13;;;;;;;13.50;10.70;;;;;;;0.01;94.85;101038.27;619068;225;32925;-76
2021/01/10 00:17:41;;;;;;;15.17;10.03;;;;;;;-0.11;95.67;101038.27;629958;225;23736;-76
2021/01/10 00:20:09;;;;;;;15.53;10.70;;;;;;;-0.05;95.89;101049.09;620250;225;33149;-76
2021/01/10 00:22:37;;;;;;;13.20;10.10;;;;;;;0.11;95.22;101047.23;620727;226;32933;-76
2021/01/10 00:25:06;;;;;;;15.60;10.60;;;;;;;0.03;95.03;101042.88;628646;225;23724;-75
2021/01/10 00:27:34;;;;;;;16.40;11.30;;;;;;;0.14;95.54;101044.55;622354;226;32933;-77
2021/01/10 00:30:02;;;;;;;15.80;12.00;;;;;;;0.28;94.75;101044.44;626657;225;32931;-76
2021/01/10 00:32:30;;;;;;;17.27;10.23;;;;;;;0.15;93.99;101041.13;636152;225;23684;-74
2021/01/10 00:34:58;;;;;;;14.65;11.20;;;;;;;0.18;94.91;101043.12;620284;226;32868;-76
2021/01/10 00:37:26;;;;;;;16.52;11.70;;;;;;;0.28;94.34;101039.74;621153;226;32993;-76
2021/01/10 00:39:54;;;;;;;16.10;9.80;;;;;;;0.23;95.30;101048.88;625917;229;23672;-75
2021/01/10 00:42:22;;;;;;;15.70;11.68;;;;;;;0.39;95.79;101044.00;619036;229;32820;-76
2021/01/10 00:44:50;;;;;;;14.40;10.83;;;;;;;0.28;94.96;101044.44;622059;225;23725;-74
2021/01/10 00:47:18;;;;;;;13.98;11.35;;;;;;;0.32;94.15;101046.43;632123;225;32787;-72
2021/01/10 00:49:46;;;;;;;18.53;11.03;;;;;;;0.18;94.73;101044.40;621695;230;23694;-73
2021/01/10 00:52:14;;;;;;;15.55;11.38;;;;;;;0.39;94.91;101041.89;620982;229;32790;-72
2021/01/10 00:54:42;;;;;;;17.48;11.90;;;;;;;0.39;94.66;101042.72;619709;225;32778;-74
2021/01/10 00:57:09;;;;;;;17.20;12.00;;;;;;;0.36;95.25;101044.13;626537;228;23733;-74
2021/01/10 00:59:39;;;;;;;15.90;12.00;;;;;;;0.43;94.91;101049.41;615824;229;32806;-73
2021/01/10 01:02:07;;;;;;;17.60;11.00;;;;;;;0.27;95.12;101048.31;639181;224;23687;-74
2021/01/10 01:04:35;;;;;;;15.93;11.80;;;;;;;0.40;95.64;101051.23;620551;225;32846;-74
2021/01/10 01:07:03;;;;;;;16.37;12.45;;;;;;;0.43;95.52;101053.25;621173;227;43552;-74
2021/01/10 01:09:31;;;;;;;17.70;11.80;;;;;;;0.31;95.30;101056.27;627858;227;23704;-74
2021/01/10 01:11:59;;;;;;;15.80;11.33;;;;;;;0.21;95.67;101062.62;624466;229;24883;-74
2021/01/10 01:14:27;;;;;;;18.27;12.60;;;;;;;0.34;96.00;101065.10;620637;225;32849;-74
2021/01/10 01:16:55;;;;;;;18.70;13.48;;;;;;;0.34;95.89;101063.83;636016;223;32784;-74
2021/01/10 01:19:23;;;;;;;19.33;12.50;;;;;;;0.21;96.28;101063.91;641907;224;23683;-75
2021/01/10 01:21:52;;;;;;;18.67;13.13;;;;;;;0.40;96.63;101069.97;634217;224;32774;-75
2021/01/10 01:24:21;;;;;;;16.70;12.23;;;;;;;0.30;96.52;101069.96;639930;221;23709;-75
2021/01/10 01:26:48;;;;;;;17.42;12.98;;;;;;;0.35;96.06;101071.05;635057;224;32846;-76
2021/01/10 01:29:16;;;;;;;16.30;11.57;;;;;;;0.25;97.44;101068.00;640669;224;23705;-74
2021/01/10 01:31:45;;;;;;;17.10;12.80;;;;;;;0.35;95.60;101062.93;633991;224;32760;-73
2021/01/10 01:34:13;;;;;;;17.47;11.83;;;;;;;0.28;96.09;101070.44;639187;224;23693;-74
2021/01/10 01:36:41;;;;;;;18.05;12.82;;;;;;;0.38;95.84;101077.32;633469;221;32767;-75
2021/01/10 01:39:09;;;;;;;18.65;14.30;;;;;;;0.54;96.19;101063.87;634003;224;33178;-75
2021/01/10 01:41:37;;;;;;;22.07;12.80;;;;;;;0.40;96.23;101075.09;638248;224;23671;-74
2021/01/10 01:44:05;;;;;;;18.80;13.55;;;;;;;0.63;95.54;101081.05;619485;230;33105;-74
2021/01/10 01:46:33;;;;;;;18.33;11.37;;;;;;;0.46;95.92;101086.83;627515;229;23677;-74
2021/01/10 01:49:01;;;;;;;19.23;13.40;;;;;;;0.49;95.08;101087.98;619531;229;32800;-76
2021/01/10 01:51:29;;;;;;;17.55;13.00;;;;;;;0.53;96.11;101096.75;617706;229;33082;-75
2021/01/10 01:53:57;;;;;;;17.57;11.93;;;;;;;0.39;95.96;101090.50;624743;229;23672;-73
2021/01/10 01:56:26;;;;;;;16.62;12.30;;;;;;;0.54;95.79;101097.58;632741;221;32938;-75
2021/01/10 01:58:58;;;;;;;16.17;12.03;;;;;;;0.44;95.74;101088.62;637234;225;23770;-74
2021/01/10 02:01:26;;;;;;;15.45;11.65;;;;;;;0.52;96.13;101091.25;631473;225;32756;-74
2021/01/10 02:03:57;;;;;;;16.75;12.60;;;;;;;0.67;95.13;101091.55;620104;228;33023;-74
2021/01/10 02:06:25;;;;;;;17.70;10.67;;;;;;;0.46;95.53;101091.95;614658;229;23783;-76
2021/01/10 02:08:53;;;;;;;16.37;11.25;;;;;;;0.61;94.81;101086.68;630817;224;33760;-76
2021/01/10 02:11:21;;;;;;;15.33;11.33;;;;;;;0.47;94.97;101084.66;639055;224;23676;-75
2021/01/10 02:13:49;;;;;;;15.23;11.20;;;;;;;0.64;94.67;101082.71;626293;225;43633;-76
2021/01/10 02:16:17;;;;;;;15.60;10.37;;;;;;;0.44;94.83;101083.05;622666;226;23716;-74
2021/01/10 02:18:44;;;;;;;14.30;11.10;;;;;;;0.55;94.66;101074.48;634220;224;32774;-73
2021/01/10 02:21:12;;;;;;;13.00;9.90;;;;;;;0.21;95.94;101074.13;626374;226;23741;-74
2021/01/10 02:23:40;;;;;;;15.48;11.00;;;;;;;0.11;97.49;101083.03;626980;224;32910;-74
2021/01/10 02:26:08;;;;;;;16.60;11.60;;;;;;;0.05;98.21;101090.50;632890;220;43346;-76
2021/01/10 02:28:36;;;;;;;13.40;9.37;;;;;;;0.07;97.22;101081.49;627385;229;23685;-76
2021/01/10 02:31:04;;;;;;;17.75;11.00;;;;;;;0.07;97.96;101081.49;619597;228;32774;-76
2021/01/10 02:33:35;;;;;;;16.25;11.30;;;;;;;-0.01;97.10;101076.20;633237;223;32620;-76
2021/01/10 02:36:04;;;;;;;13.73;9.50;;;;;;;-0.08;98.34;101076.50;625276;225;23724;-76
2021/01/10 02:38:38;;;;;;;15.07;10.77;;;;;;;-0.05;97.79;101074.66;621016;229;32914;-75
2021/01/10 02:41:12;;;;;;;12.75;10.18;;;;;;;-0.01;98.09;101072.36;636711;223;32771;-75
2021/01/10 02:43:41;;;;;;;15.07;11.37;;;;;;;0.10;97.33;101068.58;634541;224;32884;-76
2021/01/10 02:46:09;;;;;;;14.38;10.53;;;;;;;0.05;97.75;101057.70;630531;221;32748;-76
2021/01/10 02:48:37;;;;;;;15.13;9.90;;;;;;;-0.08;97.76;101056.88;639039;224;24796;-76
2021/01/10 02:51:06;;;;;;;13.48;11.00;;;;;;;-0.01;98.25;101062.14;632470;224;32749;-76
2021/01/10 02:53:33;;;;;;;14.47;11.18;;;;;;;0.04;98.00;101058.59;635364;224;32761;-75
2021/01/10 02:56:01;;;;;;;12.20;9.13;;;;;;;-0.10;98.51;101057.83;640433;221;23705;-76
2021/01/10 02:58:29;;;;;;;14.75;11.08;;;;;;;0.02;97.68;101058.66;631010;224;33289;-76
2021/01/10 03:00:57;;;;;;;14.58;10.98;;;;;;;0.03;97.14;101054.37;630590;224;33579;-76
2021/01/10 03:03:25;;;;;;;15.72;11.30;;;;;;;-0.08;97.40;101051.77;634454;224;33036;-76
2021/01/10 03:05:53;;;;;;;14.00;10.00;;;;;;;-0.16;97.67;101052.48;638933;221;23664;-76
2021/01/10 03:08:21;;;;;;;15.65;11.20;;;;;;;-0.19;98.35;101048.77;634052;224;32838;-75
2021/01/10 03:10:49;;;;;;;16.37;11.50;;;;;;;-0.09;97.85;101050.10;635847;224;32767;-76
2021/01/10 03:13:18;;;;;;;15.60;11.10;;;;;;;-0.17;97.78;101050.81;634906;224;33050;-75
2021/01/10 03:15:47;;;;;;;13.50;9.60;;;;;;;-0.44;99.27;101054.36;620808;228;24085;-75
2021/01/10 03:18:17;;;;;;;15.98;11.38;;;;;;;-0.58;100.00;101056.12;616148;230;33158;-74
2021/01/10 03:20:45;;;;;;;17.13;10.67;;;;;;;-0.63;100.00;101053.74;620301;229;23729;-76
2021/01/10 03:23:13;;;;;;;14.90;11.20;;;;;;;-0.48;100.00;101059.20;620542;229;32790;-75
2021/01/10 03:25:41;;;;;;;17.93;10.37;;;;;;;-0.59;100.00;101058.30;624905;225;23679;-74
2021/01/10 03:28:09;;;;;;;15.13;11.05;;;;;;;-0.58;100.00;101056.12;629076;222;32969;-76
2021/01/10 03:30:37;;;;;;;15.80;11.67;;;;;;;-0.56;100.00;101051.83;622194;228;43488;-75
2021/01/10 03:33:05;;;;;;;16.03;10.67;;;;;;;-0.69;100.00;101057.80;625874;226;24892;-76
2021/01/10 03:35:34;;;;;;;14.60;11.45;;;;;;;-0.77;100.00;101048.27;620282;225;33074;-76
2021/01/10 03:38:03;;;;;;;18.07;11.17;;;;;;;-0.77;100.00;101054.66;638174;224;23984;-76
2021/01/10 03:40:31;;;;;;;15.88;10.95;;;;;;;-0.78;100.00;101056.83;633532;224;32817;-76
2021/01/10 03:42:59;;;;;;;15.23;11.30;;;;;;;-0.79;100.00;101053.88;622381;227;33027;-77
2021/01/10 03:45:27;;;;;;;14.83;9.70;;;;;;;-0.78;100.00;101059.82;626253;225;23675;-76
2021/01/10 03:47:55;;;;;;;16.05;11.70;;;;;;;-0.80;100.00;101056.05;634687;223;32745;-75
2021/01/10 03:50:23;;;;;;;15.55;12.05;;;;;;;-0.75;100.00;101059.27;632706;224;32898;-76
2021/01/10 03:52:51;;;;;;;15.07;10.07;;;;;;;-0.85;100.00;101052.80;640379;224;23643;-76
2021/01/10 03:55:19;;;;;;;17.67;11.50;;;;;;;-0.77;100.00;101058.94;633210;221;32762;-75
2021/01/10 03:57:47;;;;;;;19.10;12.18;;;;;;;-0.77;100.00;101053.83;625566;225;43927;-76
2021/01/10 04:00:15;;;;;;;16.33;9.80;;;;;;;-0.99;100.00;101045.60;631973;225;23731;-74
2021/01/10 04:02:43;;;;;;;15.93;11.70;;;;;;;-1.03;100.00;101045.77;627250;225;32905;-74
2021/01/10 04:05:11;;;;;;;15.05;11.35;;;;;;;-1.04;100.00;101050.48;632241;222;32758;-76
2021/01/10 04:07:39;;;;;;;15.60;10.33;;;;;;;-1.11;100.00;101052.86;636649;224;23677;-76
2021/01/10 04:10:08;;;;;;;15.63;12.00;;;;;;;-1.01;100.00;101047.37;632034;225;32956;-75
2021/01/10 04:12:36;;;;;;;15.23;11.43;;;;;;;-0.93;100.00;101047.13;629141;224;32749;-76
2021/01/10 04:15:04;;;;;;;14.03;9.90;;;;;;;-1.11;100.00;101055.41;638613;221;23701;-74
2021/01/10 04:17:32;;;;;;;16.43;11.63;;;;;;;-1.08;100.00;101052.75;622518;224;32903;-75
2021/01/10 04:20:00;;;;;;;16.05;11.48;;;;;;;-1.12;100.00;101056.30;617508;229;32791;-76
2021/01/10 04:22:28;;;;;;;17.17;11.03;;;;;;;-1.25;100.00;101052.86;638642;223;23700;-75
2021/01/10 04:24:56;;;;;;;15.63;11.05;;;;;;;-1.22;100.00;101053.20;633719;221;32764;-75
2021/01/10 04:27:24;;;;;;;14.95;11.28;;;;;;;-1.26;100.00;101049.92;633733;224;43540;-74
2021/01/10 04:29:52;;;;;;;16.20;10.30;;;;;;;-1.31;100.00;101056.88;640078;224;23686;-76
2021/01/10 04:32:20;;;;;;;15.90;11.00;;;;;;;-1.31;100.00;101054.32;634124;224;32779;-76
2021/01/10 04:34:48;;;;;;;16.35;12.15;;;;;;;-1.33;100.00;101053.53;632970;221;32756;-75
2021/01/10 04:37:16;;;;;;;16.50;10.30;;;;;;;-1.48;100.00;101057.85;639205;224;23676;-76
2021/01/10 04:39:43;;;;;;;17.10;11.65;;;;;;;-1.49;100.00;101056.19;634528;223;32788;-75
2021/01/10 04:42:14;;;;;;;16.48;11.80;;;;;;;-1.40;100.00;101057.18;620131;229;32902;-76
2021/01/10 04:44:41;;;;;;;16.03;10.33;;;;;;;-1.39;100.00;101055.47;635074;221;23704;-75
2021/01/10 04:47:09;;;;;;;17.15;11.90;;;;;;;-1.41;100.00;101058.03;633192;224;32798;-75
2021/01/10 04:49:37;;;;;;;16.70;12.40;;;;;;;-1.25;100.00;101054.58;635361;223;33083;-76
2021/01/10 04:52:05;;;;;;;13.60;10.10;;;;;;;-1.32;100.00;101051.82;623874;229;23736;-74
2021/01/10 04:54:33;;;;;;;16.90;12.03;;;;;;;-1.31;100.00;101050.49;631019;221;32757;-75
2021/01/10 04:57:02;;;;;;;17.17;12.00;;;;;;;-1.18;100.00;101052.20;635143;224;32829;-75
2021/01/10 04:59:29;;;;;;;15.93;10.20;;;;;;;-1.42;100.00;101052.98;627056;229;23696;-76
2021/01/10 05:01:58;;;;;;;15.90;11.12;;;;;;;-1.23;100.00;101052.81;621187;229;32786;-76
2021/01/10 05:04:24;;;;;;;16.90;11.50;;;;;;;-1.18;100.00;101053.92;620626;225;32925;-75
2021/01/10 05:06:52;;;;;;;14.37;9.70;;;;;;;-1.33;100.00;101052.70;626274;228;23706;-75
2021/01/10 05:09:20;;;;;;;17.30;11.95;;;;;;;-1.20;99.94;101056.09;634264;223;32805;-75
2021/01/10 05:11:48;;;;;;;15.65;12.25;;;;;;;-1.15;99.78;101052.55;618800;227;33087;-75
2021/01/10 05:14:16;;;;;;;16.37;9.80;;;;;;;-1.29;100.00;101047.45;641762;223;23673;-76
2021/01/10 05:16:44;;;;;;;15.95;11.65;;;;;;;-1.02;99.45;101045.71;633950;221;32750;-76
2021/01/10 05:19:12;;;;;;;15.20;11.50;;;;;;;-0.96;98.61;101042.14;618244;230;32922;-75
2021/01/10 05:21:41;;;;;;;14.20;9.90;;;;;;;-1.16;99.76;101048.33;640633;224;23681;-75
2021/01/10 05:24:09;;;;;;;15.63;11.60;;;;;;;-1.20;99.28;101052.27;634226;224;32764;-76
2021/01/10 05:26:37;;;;;;;16.00;11.40;;;;;;;-1.07;99.05;101054.41;618522;225;32918;-75
2021/01/10 05:29:06;;;;;;;18.15;11.80;;;;;;;-0.89;98.05;101051.24;619544;228;32931;-76
2021/01/10 05:31:34;;;;;;;15.70;10.77;;;;;;;-1.35;98.96;101062.96;637430;225;23713;-76
2021/01/10 05:34:02;;;;;;;16.50;11.97;;;;;;;-1.09;99.18;101065.95;634520;224;32835;-76
2021/01/10 05:36:31;;;;;;;13.80;10.20;;;;;;;-1.35;99.43;101063.41;625275;225;29127;-75
2021/01/10 05:38:59;;;;;;;15.85;11.45;;;;;;;-1.14;98.47;101059.31;621361;226;32808;-75
2021/01/10 05:41:26;;;;;;;13.87;9.27;;;;;;;-1.29;98.85;101057.65;624911;229;23698;-75
2021/01/10 05:43:59;;;;;;;15.98;11.90;;;;;;;-1.30;99.57;101059.81;623247;227;32905;-75
2021/01/10 05:46:27;;;;;;;15.72;11.53;;;;;;;-1.34;99.92;101059.52;621168;225;32865;-75
2021/01/10 05:48:55;;;;;;;15.27;9.67;;;;;;;-1.41;99.51;101063.58;622356;229;29254;-74
2021/01/10 05:51:26;;;;;;;15.58;11.43;;;;;;;-1.32;100.00;101065.41;618874;228;32784;-76
2021/01/10 05:53:53;;;;;;;18.03;12.50;;;;;;;-1.24;99.87;101066.02;613089;229;33102;-75
2021/01/10 05:56:21;;;;;;;19.60;10.43;;;;;;;-1.37;99.62;101063.90;625570;225;24808;-75
2021/01/10 05:58:55;;;;;;;15.75;11.50;;;;;;;-1.37;99.86;101061.34;620183;227;33066;-75
2021/01/10 06:01:23;;;;;;;17.70;11.45;;;;;;;-1.33;99.52;101065.46;633140;224;32821;-76
2021/01/10 06:03:51;;;;;;;16.67;10.30;;;;;;;-1.46;99.40;101057.36;627307;227;23683;-74
2021/01/10 06:06:19;;;;;;;15.28;10.80;;;;;;;-1.41;100.00;101064.41;635568;220;32800;-75
2021/01/10 06:08:47;;;;;;;17.00;11.57;;;;;;;-1.43;99.66;101065.34;634470;224;32886;-75
2021/01/10 06:11:22;;;;;;;17.57;11.13;;;;;;;-1.60;100.00;101065.44;640720;224;23685;-76
2021/01/10 06:13:52;;;;;;;15.90;11.70;;;;;;;-1.47;99.80;101065.89;633893;224;32761;-76
2021/01/10 06:16:20;;;;;;;15.58;11.20;;;;;;;-1.33;99.41;101066.30;633525;221;43476;-75
2021/01/10 06:18:48;;;;;;;16.10;10.33;;;;;;;-1.66;100.00;101065.64;640540;224;23681;-75
2021/01/10 06:21:18;;;;;;;17.87;12.30;;;;;;;-1.45;100.00;101060.74;634631;224;32832;-76
2021/01/10 06:23:47;;;;;;;16.77;11.90;;;;;;;-1.48;99.64;101059.12;634610;224;43462;-75
2021/01/10 06:26:16;;;;;;;16.37;11.83;;;;;;;-1.46;99.33;101062.90;635095;220;32749;-75
2021/01/10 06:28:47;;;;;;;15.17;10.00;;;;;;;-1.61;99.98;101061.66;640050;224;23714;-75
2021/01/10 06:31:15;;;;;;;17.45;11.95;;;;;;;-1.52;100.00;101067.77;632982;224;33039;-74
2021/01/10 06:33:43;;;;;;;17.87;12.10;;;;;;;-1.41;99.27;101066.96;619351;229;32858;-76
2021/01/10 06:36:12;;;;;;;14.73;11.15;;;;;;;-1.31;99.01;101070.90;620442;225;32937;-75
2021/01/10 06:38:40;;;;;;;16.87;10.30;;;;;;;-1.73;99.85;101073.50;637671;225;23865;-76
2021/01/10 06:41:16;;;;;;;16.42;11.15;;;;;;;-1.35;99.08;101071.89;636041;223;32870;-75
2021/01/10 06:43:44;;;;;;;16.73;12.13;;;;;;;-1.22;97.91;101070.62;631841;224;34762;-76
2021/01/10 06:46:12;;;;;;;15.40;10.60;;;;;;;-1.60;99.05;101078.63;640010;221;24794;-76
2021/01/10 06:48:40;;;;;;;16.75;11.10;;;;;;;-1.54;99.54;101079.73;633814;224;33010;-75
2021/01/10 06:51:08;;;;;;;15.50;11.88;;;;;;;-1.35;98.74;101081.27;628596;225;32931;-76
2021/01/10 06:53:37;;;;;;;14.20;10.30;;;;;;;-1.89;99.44;101080.33;631125;225;23699;-73
2021/01/10 06:56:06;;;;;;;16.60;12.20;;;;;;;-1.55;99.95;101085.69;626053;225;32942;-73
2021/01/10 06:58:35;;;;;;;15.60;10.30;;;;;;;-1.78;100.00;101083.02;634996;225;25892;-76
2021/01/10 07:01:02;;;;;;;16.23;11.50;;;;;;;-1.50;99.56;101082.57;629301;225;33212;-75
2021/01/10 07:03:30;;;;;;;15.90;11.90;;;;;;;-1.48;99.23;101082.08;630153;223;33280;-76
2021/01/10 07:06:05;;;;;;;13.77;9.40;;;;;;;-1.75;100.00;101088.02;638979;220;23740;-76
2021/01/10 07:08:32;;;;;;;16.07;11.40;;;;;;;-1.58;99.43;101085.78;633307;225;32890;-75
2021/01/10 07:11:31;;;;;;;14.28;11.25;;;;;;;-1.61;99.21;101080.78;631762;225;43768;-75
2021/01/10 07:14:23;;;;;;;14.90;9.67;;;;;;;-1.97;100.00;101089.93;625399;229;26959;-73
2021/01/10 07:16:51;;;;;;;15.40;10.90;;;;;;;-1.97;100.00;101088.66;618645;228;32887;-75
2021/01/10 07:19:19;;;;;;;16.60;11.38;;;;;;;-1.81;100.00;101087.77;632016;224;32857;-75
2021/01/10 07:21:47;;;;;;;17.40;10.80;;;;;;;-1.98;100.00;101088.23;638961;224;23693;-76
2021/01/10 07:24:31;;;;;;;16.15;11.15;;;;;;;-1.88;100.00;101088.37;619212;229;32834;-76
2021/01/10 07:26:59;;;;;;;15.07;11.50;;;;;;;-1.82;100.00;101083.55;621794;228;43721;-76
2021/01/10 07:29:27;;;;;;;14.20;9.80;;;;;;;-2.12;100.00;101076.32;628834;228;24879;-72
2021/01/10 07:31:56;;;;;;;17.82;12.40;;;;;;;-2.16;100.00;101083.66;623408;228;33106;-73
2021/01/10 07:34:24;;;;;;;16.82;12.23;;;;;;;-2.13;100.00;101087.39;620800;225;32944;-74
2021/01/10 07:36:53;;;;;;;15.67;11.10;;;;;;;-2.19;100.00;101093.95;622187;229;23689;-75
2021/01/10 07:39:22;;;;;;;18.07;12.28;;;;;;;-2.12;100.00;101090.33;634058;224;32814;-75
2021/01/10 07:41:50;;;;;;;17.65;12.47;;;;;;;-1.96;100.00;101086.94;632665;224;32835;-75
2021/01/10 07:44:18;;;;;;;15.43;11.03;;;;;;;-2.05;100.00;101094.39;626348;225;23725;-75
2021/01/10 07:46:53;;;;;;;17.90;12.60;;;;;;;-1.81;100.00;101090.31;620636;229;33024;-76
2021/01/10 07:49:21;;;;;;;17.55;12.50;;;;;;;-1.89;100.00;101087.97;609851;228;33216;-73
2021/01/10 07:51:49;;;;;;;16.03;10.03;;;;;;;-1.95;100.00;101097.53;627599;223;26886;-74
2021/01/10 07:54:17;;;;;;;16.77;11.83;;;;;;;-1.88;100.00;101101.11;630864;225;34057;-75
2021/01/10 07:56:45;;;;;;;18.12;13.03;;;;;;;-1.82;100.00;101097.57;631743;221;33263;-75
2021/01/10 07:59:15;;;;;;;17.70;12.68;;;;;;;-1.70;100.00;101098.45;630917;225;33235;-75
2021/01/10 08:01:48;;;;;;;16.52;12.30;;;;;;;-1.55;100.00;101106.09;629771;225;33073;-75
2021/01/10 08:04:26;;;;;;;16.53;11.00;;;;;;;-1.58;100.00;101108.30;633176;225;23805;-73
2021/01/10 08:06:57;;;;;;;18.13;11.73;;;;;;;-1.40;99.85;101101.82;633195;224;33065;-74
2021/01/10 08:09:28;;;;;;;15.40;11.87;;;;;;;-1.16;98.67;101098.09;620687;229;32816;-72
2021/01/10 08:11:56;;;;;;;17.03;10.70;;;;;;;-1.36;98.55;101089.36;625712;229;24909;-73
2021/01/10 08:14:24;;;;;;;16.23;11.43;;;;;;;-1.41;100.00;101105.22;620687;228;32786;-73
2021/01/10 08:16:52;;;;;;;15.85;11.63;;;;;;;-1.30;99.32;101108.73;619248;224;44187;-74
2021/01/10 08:19:20;;;;;;;16.60;11.88;;;;;;;-1.43;99.39;101112.09;634688;223;32787;-76
2021/01/10 08:24:39;;;;;;;16.40;12.00;;;;;;;-1.40;99.56;101118.41;630407;220;32913;-75
2021/01/10 08:27:07;;;;;;;16.70;11.93;;;;;;;-1.22;99.06;101114.44;634040;224;34358;-75
2021/01/10 08:35:15;;;;;;;16.50;11.83;;;;;;;-0.92;97.81;101106.24;628793;225;32948;-75
2021/01/10 08:37:43;;;;;;;15.40;10.17;;;;;;;-1.11;98.83;101110.28;636952;224;23667;-73
2021/01/10 08:40:12;;;;;;;14.90;10.65;;;;;;;-0.96;98.22;101114.89;619805;229;32917;-73
2021/01/10 08:42:41;;;;;;;15.03;10.88;;;;;;;-1.28;98.89;101117.16;620940;228;43547;-72
2021/01/10 08:45:15;;;;;;;13.13;9.40;;;;;;;-1.39;99.84;101131.55;638507;221;23662;-73
2021/01/10 08:47:43;;;;;;;14.50;11.08;;;;;;;-1.22;99.45;101134.41;619220;229;32796;-76
2021/01/10 08:50:12;;;;;;;14.93;9.83;;;;;;;-1.24;99.75;101129.80;623890;229;23690;-73
2021/01/10 08:52:52;;;;;;;14.05;10.18;;;;;;;-1.32;99.01;101126.64;621661;228;33025;-74
2021/01/10 08:55:31;;;;;;;14.28;10.53;;;;;;;-1.24;98.62;101131.08;635165;220;32791;-74
2021/01/10 08:57:59;;;;;;;14.20;9.90;;;;;;;-1.15;98.45;101130.38;625083;229;23746;-73
2021/01/10 09:00:27;;;;;;;14.10;10.78;;;;;;;-0.98;98.32;101128.16;621712;227;32955;-74
2021/01/10 09:02:55;;;;;;;16.00;11.50;;;;;;;-0.83;97.68;101134.48;633299;224;32765;-73
2021/01/10 09:05:24;;;;;;;14.63;10.70;;;;;;;-0.72;96.56;101128.55;619738;226;33103;-74
2021/01/10 09:07:53;;;;;;;14.50;10.07;;;;;;;-0.83;96.99;101134.48;633251;225;27952;-74
2021/01/10 09:10:22;;;;;;;13.40;10.70;;;;;;;-0.75;96.17;101121.00;621295;223;32998;-74
2021/01/10 09:12:52;;;;;;;14.30;11.20;;;;;;;-0.62;95.92;101128.20;615040;230;32906;-74
2021/01/10 09:15:20;;;;;;;14.60;10.50;;;;;;;-0.79;96.97;101136.88;626590;225;23688;-74
2021/01/10 09:17:49;;;;;;;13.72;10.20;;;;;;;-0.66;96.55;101130.47;617866;230;32908;-74
2021/01/10 09:20:17;;;;;;;14.23;10.90;;;;;;;-0.45;95.90;101126.79;622708;228;32915;-74
2021/01/10 09:22:45;;;;;;;14.43;9.77;;;;;;;-0.62;95.53;101132.03;625620;229;23819;-73
2021/01/10 09:25:14;;;;;;;14.38;10.45;;;;;;;-0.33;94.75;101130.20;617980;225;33094;-74
2021/01/10 09:28:01;;;;;;;12.93;10.30;;;;;;;-0.08;93.81;101129.73;635219;223;32853;-74
2021/01/10 09:30:31;;;;;;;11.67;8.90;;;;;;;-0.42;93.92;101135.20;639925;223;23705;-74
2021/01/10 09:32:59;;;;;;;13.22;10.32;;;;;;;-0.31;94.58;101138.64;632061;225;32914;-74
2021/01/10 09:35:26;;;;;;;14.53;9.50;;;;;;;-0.47;95.57;101138.78;634184;225;23703;-74
2021/01/10 09:37:54;;;;;;;12.98;9.88;;;;;;;-0.43;94.48;101135.23;620572;229;32736;-74
2021/01/10 09:40:23;;;;;;;15.40;11.00;;;;;;;-0.47;94.71;101133.23;621664;228;32905;-74
2021/01/10 09:42:51;;;;;;;17.03;9.47;;;;;;;-0.64;95.51;101133.81;626276;228;23698;-74
2021/01/10 09:46:30;;;;;;;14.00;9.27;;;;;;;-0.52;95.01;101131.29;652452;217;30885;-76
2021/01/10 09:48:59;;;;;;;12.40;9.90;;;;;;;-0.43;95.09;101132.23;626101;225;32876;-76
2021/01/10 09:51:34;;;;;;;14.38;10.13;;;;;;;-0.24;93.82;101131.17;628912;225;43899;-74
2021/01/10 09:54:11;;;;;;;12.77;9.47;;;;;;;-0.28;95.34;101128.76;638605;223;23677;-74
2021/01/10 09:56:45;;;;;;;15.60;10.18;;;;;;;-0.11;95.06;101129.85;636861;223;32716;-74
2021/01/10 09:59:23;;;;;;;14.30;10.80;;;;;;;-0.01;94.34;101135.00;636647;221;32825;-74
2021/01/10 10:01:51;;;;;;;12.85;10.30;;;;;;;0.02;93.89;101125.58;636980;220;32790;-76
2021/01/10 10:04:26;;;;;;;13.18;9.53;;;;;;;0.03;92.97;101122.13;626006;225;43934;-74
2021/01/10 10:06:54;;;;;;;11.97;9.03;;;;;;;-0.06;93.31;101125.40;626582;226;23723;-72
2021/01/10 10:09:22;;;;;;;12.53;9.50;;;;;;;-0.03;92.83;101118.89;637102;221;32767;-73
2021/01/10 10:11:50;;;;;;;13.53;9.50;;;;;;;0.18;92.61;101117.28;636245;221;33169;-73
2021/01/10 10:14:18;;;;;;;13.27;9.00;;;;;;;0.04;93.37;101119.97;632414;225;23854;-73
2021/01/10 10:16:46;;;;;;;12.78;9.50;;;;;;;0.16;93.10;101116.52;621333;225;32892;-74
2021/01/10 10:19:14;;;;;;;15.45;10.80;;;;;;;0.33;92.70;101106.09;635006;221;32784;-74
2021/01/10 10:21:48;;;;;;;11.70;8.60;;;;;;;0.29;91.61;101097.27;637355;222;25857;-73
2021/01/10 10:24:16;;;;;;;11.15;8.80;;;;;;;0.55;91.24;101089.01;625811;225;32892;-74
2021/01/10 10:26:44;;;;;;;16.50;8.77;;;;;;;0.43;90.75;101081.84;627974;225;23713;-74
2021/01/10 10:29:12;;;;;;;11.78;8.93;;;;;;;0.71;90.39;101085.43;632200;224;32856;-72
2021/01/10 10:31:41;;;;;;;14.17;8.73;;;;;;;0.65;90.14;101085.20;644303;220;23791;-74
2021/01/10 10:34:09;;;;;;;10.53;8.30;;;;;;;0.69;89.32;101073.95;637227;221;32801;-75
2021/01/10 10:36:37;;;;;;;11.07;8.60;;;;;;;0.83;90.75;101091.31;642257;221;23705;-76
2021/01/10 10:39:06;;;;;;;11.30;8.80;;;;;;;0.95;89.80;101083.14;624307;225;32887;-74
2021/01/10 10:41:34;;;;;;;12.20;9.33;;;;;;;0.88;89.81;101081.30;629508;225;23703;-74
2021/01/10 10:44:02;;;;;;;11.00;8.13;;;;;;;1.01;89.89;101085.47;627623;225;24924;-74
2021/01/10 10:46:33;;;;;;;11.10;8.50;;;;;;;1.15;87.98;101071.64;634921;221;32727;-73
2021/01/10 10:49:01;;;;;;;12.53;8.20;;;;;;;1.23;88.50;101071.31;644235;221;23688;-73
2021/01/10 10:51:31;;;;;;;10.60;7.67;;;;;;;1.07;88.00;101059.59;642818;221;24839;-74
2021/01/10 10:53:58;;;;;;;11.75;8.75;;;;;;;1.38;87.64;101057.84;636345;221;32736;-73
2021/01/10 10:56:35;;;;;;;10.53;8.23;;;;;;;1.28;86.80;101057.05;642506;219;23688;-74
2021/01/10 10:59:03;;;;;;;12.40;7.70;;;;;;;1.36;87.44;101053.69;641718;220;25096;-73
2021/01/10 11:01:37;;;;;;;10.70;7.67;;;;;;;1.47;85.82;101048.94;635447;220;32740;-74
2021/01/10 11:04:05;;;;;;;11.23;8.13;;;;;;;1.47;86.60;101040.80;644608;220;23684;-76
2021/01/10 11:06:43;;;;;;;10.43;7.00;;;;;;;1.44;85.52;101030.69;642573;220;24993;-76
2021/01/10 11:09:11;;;;;;;10.20;8.00;;;;;;;1.73;86.94;101040.94;636743;220;32736;-76
2021/01/10 11:11:39;;;;;;;9.27;7.10;;;;;;;1.65;85.43;101030.19;643242;221;23687;-73
2021/01/10 11:14:07;;;;;;;8.60;6.77;;;;;;;1.53;83.84;101017.91;639628;221;24872;-70
2021/01/10 11:16:35;;;;;;;10.15;7.62;;;;;;;1.69;83.13;101013.78;636992;221;32770;-73
2021/01/10 11:19:03;;;;;;;8.85;7.60;;;;;;;2.06;83.96;101023.63;635528;221;32790;-73
2021/01/10 11:21:31;;;;;;;8.77;7.20;;;;;;;2.02;83.80;101020.39;644407;221;23699;-73
2021/01/10 11:23:59;;;;;;;8.73;6.80;;;;;;;2.01;82.74;101020.01;641040;221;25927;-73
2021/01/10 11:26:27;;;;;;;8.33;6.30;;;;;;;1.95;82.31;101015.14;644266;221;24837;-73
2021/01/10 11:28:55;;;;;;;9.53;6.80;;;;;;;1.89;82.18;101002.61;645009;221;24828;-73